Time;durP1;ratioP1;P1;durP2;ratioP2;P2;SDS_P1;SDS_P2;PMS_P1;PMS_P2;Temp;Humidity;BMP_temperature;BMP_pressure;BME280_temperature;BME280_humidity;BME280_pressure;Samples;Min_cycle;Max_cycle;Signal;HPM_P1;HPM_P2
2021/12/13 00:02:08;;;;;;;;;8.00;8.00;;;;;21.54;42.01;102309.41;5090971;27;52008;-44
2021/12/13 00:04:49;;;;;;;;;8.50;8.50;;;;;21.52;41.71;102303.25;5089767;27;51078;-43
2021/12/13 00:07:17;;;;;;;;;5.75;5.75;;;;;21.49;42.01;102298.97;5086349;27;51088;-43
2021/12/13 00:09:46;;;;;;;;;6.50;6.25;;;;;21.48;41.91;102296.41;5083784;27;50951;-47
2021/12/13 00:12:20;;;;;;;;;8.25;7.00;;;;;21.45;41.68;102294.88;5076554;27;52051;-43
2021/12/13 00:14:50;;;;;;;;;7.50;7.00;;;;;21.45;41.77;102302.31;5087956;27;51454;-44
2021/12/13 00:17:21;;;;;;;;;7.75;7.25;;;;;21.43;41.79;102298.88;5093521;27;51097;-43
2021/12/13 00:20:07;;;;;;;;;7.25;7.25;;;;;21.42;42.08;102291.66;5084494;27;51097;-43
2021/12/13 00:22:37;;;;;;;;;8.00;8.00;;;;;21.39;41.95;102284.66;5091809;27;53541;-43
2021/12/13 00:25:10;;;;;;;;;7.25;5.50;;;;;21.37;41.63;102278.47;5088499;27;51015;-43
2021/12/13 00:27:46;;;;;;;;;9.25;8.00;;;;;21.36;41.74;102286.91;5097491;27;51106;-46
2021/12/13 00:30:28;;;;;;;;;7.00;7.00;;;;;21.33;41.89;102278.00;5089426;27;51102;-42
2021/12/13 00:33:27;;;;;;;;;7.25;5.25;;;;;21.32;41.80;102276.28;5092325;27;51060;-44
2021/12/13 00:36:07;;;;;;;;;6.50;6.25;;;;;21.30;41.60;102277.53;5087116;27;51467;-41
2021/12/13 00:38:40;;;;;;;;;8.50;6.75;;;;;21.27;42.11;102273.28;5086305;27;51222;-43
2021/12/13 00:41:16;;;;;;;;;7.75;6.00;;;;;21.26;42.14;102271.56;5090827;27;50860;-43
2021/12/13 00:43:56;;;;;;;;;9.00;7.50;;;;;21.25;42.19;102274.47;5081491;27;51675;-44
2021/12/13 00:46:24;;;;;;;;;8.50;7.75;;;;;21.23;42.25;102277.41;5083859;27;51191;-43
2021/12/13 00:48:53;;;;;;;;;9.00;9.00;;;;;21.22;41.80;102275.72;5087351;27;51052;-44
2021/12/13 00:51:29;;;;;;;;;8.00;6.50;;;;;21.21;42.16;102270.41;5095722;27;51002;-43
2021/12/13 00:53:58;;;;;;;;;8.25;6.00;;;;;21.19;42.22;102267.84;5078478;27;51094;-44
2021/12/13 00:56:49;;;;;;;;;7.00;6.25;;;;;21.18;41.81;102268.88;5087786;27;51266;-43
2021/12/13 00:59:36;;;;;;;;;8.50;6.50;;;;;21.16;41.82;102275.66;5079652;27;51089;-42
2021/12/13 01:02:10;;;;;;;;;7.25;5.00;;;;;21.15;42.26;102288.53;5088473;27;50963;-45
2021/12/13 01:05:07;;;;;;;;;7.25;7.25;;;;;21.14;42.11;102291.50;5081773;27;51412;-44
2021/12/13 01:07:33;;;;;;;;;6.50;6.50;;;;;21.12;42.20;102282.56;5078624;27;51075;-45
2021/12/13 01:10:17;;;;;;;;;10.50;7.25;;;;;21.10;41.86;102280.00;5078728;27;51261;-46
2021/12/13 01:12:45;;;;;;;;;6.25;6.25;;;;;21.09;42.06;102286.56;5088024;27;51058;-45
2021/12/13 01:15:16;;;;;;;;;7.25;6.00;;;;;21.07;41.76;102283.16;5085141;27;51761;-45
2021/12/13 01:20:57;;;;;;;;;9.75;8.00;;;;;21.06;41.92;102277.84;5081183;27;51216;-44
2021/12/13 01:23:41;;;;;;;;;6.25;4.50;;;;;21.04;41.88;102278.00;5084470;27;52113;-43
2021/12/13 01:28:53;;;;;;;;;5.75;5.75;;;;;21.01;41.89;102276.50;5071101;27;51109;-42
2021/12/13 01:31:26;;;;;;;;;6.75;6.00;;;;;20.99;41.83;102278.59;5101703;27;51103;-43
2021/12/13 01:33:54;;;;;;;;;7.25;5.00;;;;;21.00;41.83;102271.19;5077842;27;50971;-43
2021/12/13 01:36:27;;;;;;;;;7.25;6.00;;;;;20.99;42.17;102280.50;5082998;27;51009;-43
2021/12/13 01:39:00;;;;;;;;;6.75;5.50;;;;;20.97;42.36;102277.94;5082664;27;51162;-44
2021/12/13 01:41:31;;;;;;;;;4.75;4.75;;;;;20.96;41.93;102278.13;5095600;27;51138;-45
2021/12/13 01:44:19;;;;;;;;;5.00;4.75;;;;;20.94;42.47;102285.72;5085308;27;50980;-42
2021/12/13 01:46:48;;;;;;;;;4.75;4.75;;;;;20.92;42.57;102285.91;5084129;27;51047;-42
2021/12/13 01:49:15;;;;;;;;;7.00;5.50;;;;;20.91;41.90;102284.19;5085147;27;51294;-44
2021/12/13 01:51:41;;;;;;;;;7.25;5.75;;;;;20.92;42.11;102290.56;5086023;27;51099;-42
2021/12/13 01:54:13;;;;;;;;;9.50;5.50;;;;;20.91;41.96;102286.09;5087592;27;51228;-43
2021/12/13 01:57:56;;;;;;;;;8.25;5.50;;;;;20.90;42.27;102287.16;5085350;27;51201;-42
2021/12/13 02:00:08;;;;;;;;;7.25;6.50;;;;;20.88;42.37;102280.97;5086646;27;51225;-42
2021/12/13 02:02:37;;;;;;;;;7.00;5.25;;;;;20.88;42.12;102280.97;5092283;27;50984;-44
2021/12/13 02:05:14;;;;;;;;;8.25;6.25;;;;;20.86;42.44;102277.56;5076894;27;51275;-45
2021/12/13 02:07:47;;;;;;;;;4.75;4.75;;;;;20.86;42.48;102286.69;5084661;27;51922;-43
2021/12/13 02:10:27;;;;;;;;;4.50;4.25;;;;;20.85;42.44;102289.63;5094473;27;51295;-43
2021/12/13 02:12:58;;;;;;;;;5.25;4.25;;;;;20.83;41.82;102280.69;5080657;27;51181;-40
2021/12/13 02:18:15;;;;;;;;;5.25;4.50;;;;;20.80;42.16;102292.94;5085930;27;51182;-45
2021/12/13 02:20:48;;;;;;;;;8.25;7.25;;;;;20.79;42.03;102291.22;5087558;27;51260;-45
2021/12/13 02:23:14;;;;;;;;;6.75;6.75;;;;;20.79;42.43;102295.88;5082680;27;51044;-42
2021/12/13 02:25:42;;;;;;;;;5.75;5.75;;;;;20.78;42.11;102294.19;5092975;27;51060;-45
2021/12/13 02:28:07;;;;;;;;;6.25;6.00;;;;;20.77;42.36;102304.34;5088852;27;52773;-44
2021/12/13 02:30:33;;;;;;;;;5.25;5.25;;;;;20.77;42.42;102303.50;5089809;27;51110;-46
2021/12/13 02:32:59;;;;;;;;;9.00;6.00;;;;;20.75;42.05;102298.19;5083443;27;51130;-43
2021/12/13 02:35:28;;;;;;;;;6.00;6.00;;;;;20.74;42.36;102300.09;5089158;27;50981;-44
2021/12/13 02:37:58;;;;;;;;;4.75;4.00;;;;;20.73;42.25;102297.50;5090813;27;51322;-42
2021/12/13 02:40:23;;;;;;;;;5.50;5.00;;;;;20.72;42.29;102293.03;5085235;27;51404;-43
2021/12/13 02:42:51;;;;;;;;;5.25;5.25;;;;;20.72;41.99;102291.13;5085682;27;51234;-45
2021/12/13 02:45:32;;;;;;;;;5.00;3.75;;;;;20.71;42.30;102289.41;5086218;27;51345;-41
2021/12/13 02:48:29;;;;;;;;;8.75;8.75;;;;;20.70;42.43;102287.72;5086877;27;51739;-40
2021/12/13 02:51:19;;;;;;;;;5.50;4.75;;;;;20.70;42.34;102295.13;5089213;27;51108;-44
2021/12/13 02:54:05;;;;;;;;;4.00;2.75;;;;;20.68;42.07;102289.81;5107239;27;51221;-40
2021/12/13 02:56:42;;;;;;;;;7.50;7.50;;;;;20.67;42.37;102288.09;5083059;27;51206;-41
2021/12/13 02:59:07;;;;;;;;;8.00;6.00;;;;;20.66;42.38;102278.13;5090830;27;51009;-40
2021/12/13 03:01:43;;;;;;;;;5.50;4.00;;;;;20.66;42.35;102282.78;5087014;27;50978;-41
2021/12/13 03:04:14;;;;;;;;;6.00;5.75;;;;;20.64;42.21;102285.72;5090732;27;51213;-41
2021/12/13 03:07:14;;;;;;;;;5.25;5.25;;;;;20.64;42.41;102276.63;5099297;27;51532;-40
2021/12/13 03:09:42;;;;;;;;;6.00;6.00;;;;;20.63;42.30;102289.50;5078499;27;51404;-40
2021/12/13 03:12:12;;;;;;;;;6.25;4.25;;;;;20.61;42.49;102283.34;5079786;27;51256;-40
2021/12/13 03:14:53;;;;;;;;;5.75;5.00;;;;;20.61;42.10;102283.34;5104494;27;51854;-40
2021/12/13 03:17:30;;;;;;;;;6.25;6.25;;;;;20.61;42.51;102282.47;5103740;27;51017;-40
2021/12/13 03:20:20;;;;;;;;;6.00;5.75;;;;;20.60;42.36;102284.38;5082775;27;52002;-41
2021/12/13 03:23:20;;;;;;;;;7.75;5.25;;;;;20.60;42.32;102283.53;5081812;27;50949;-41
2021/12/13 03:25:45;;;;;;;;;6.00;6.00;;;;;20.58;42.48;102283.72;5088477;27;51036;-40
2021/12/13 03:28:14;;;;;;;;;5.00;5.00;;;;;20.57;42.39;102279.25;5097618;27;51162;-41
2021/12/13 03:30:56;;;;;;;;;7.00;5.50;;;;;20.55;42.13;102278.59;5090454;27;50939;-40
2021/12/13 03:33:40;;;;;;;;;5.50;5.00;;;;;20.56;42.58;102279.47;5110432;27;51275;-41
2021/12/13 03:36:10;;;;;;;;;6.00;4.75;;;;;20.55;42.25;102278.59;5088002;27;51139;-40
2021/12/13 03:38:41;;;;;;;;;7.75;4.75;;;;;20.53;42.59;102275.19;5091868;27;51246;-41
2021/12/13 03:41:11;;;;;;;;;5.75;5.00;;;;;20.53;42.60;102277.94;5084598;27;51821;-41
2021/12/13 03:43:39;;;;;;;;;9.50;5.75;;;;;20.53;42.57;102271.56;5079756;27;51035;-40
2021/12/13 03:46:07;;;;;;;;;5.25;4.25;;;;;20.52;42.58;102270.69;5080572;27;51110;-41
2021/12/13 03:48:35;;;;;;;;;4.75;4.25;;;;;20.52;42.37;102267.09;5088445;27;51104;-41
2021/12/13 03:51:14;;;;;;;;;6.50;5.50;;;;;20.51;42.22;102263.50;5086075;27;54475;-40
2021/12/13 03:53:43;;;;;;;;;5.00;3.75;;;;;20.50;42.59;102260.94;5079198;27;51399;-41
2021/12/13 03:56:13;;;;;;;;;4.75;4.00;;;;;20.50;42.30;102266.44;5101543;27;51226;-41
2021/12/13 03:58:46;;;;;;;;;6.00;4.00;;;;;20.49;42.88;102257.31;5088702;27;51077;-43
2021/12/13 04:01:21;;;;;;;;;6.75;5.00;;;;;20.49;42.47;102251.81;5083178;27;52760;-41
2021/12/13 04:03:49;;;;;;;;;5.00;5.00;;;;;20.46;42.70;102252.19;5077807;27;51305;-41
2021/12/13 04:06:17;;;;;;;;;8.00;8.00;;;;;20.46;42.43;102255.81;5087602;27;50989;-41
2021/12/13 04:08:49;;;;;;;;;4.00;4.00;;;;;20.46;42.14;102254.94;5074014;27;51048;-42
2021/12/13 04:11:15;;;;;;;;;3.75;3.75;;;;;20.44;42.79;102266.16;5082167;27;51205;-41
2021/12/13 04:13:47;;;;;;;;;5.00;4.00;;;;;20.45;42.61;102258.75;5084430;27;51499;-41
2021/12/13 04:16:46;;;;;;;;;7.25;7.25;;;;;20.45;42.60;102258.75;5091867;27;51074;-41
2021/12/13 04:19:16;;;;;;;;;5.25;5.25;;;;;20.43;42.53;102253.44;5083189;27;51741;-41
2021/12/13 04:21:44;;;;;;;;;5.75;5.75;;;;;20.43;42.61;102258.94;5086972;27;52802;-41
2021/12/13 04:24:14;;;;;;;;;5.25;5.25;;;;;20.44;42.61;102259.78;5078749;27;51450;-42
2021/12/13 04:26:45;;;;;;;;;3.75;3.75;;;;;20.42;43.02;102261.81;5078899;27;51066;-41
2021/12/13 04:29:15;;;;;;;;;4.75;4.75;;;;;20.42;42.56;102261.81;5086801;27;51210;-41
2021/12/13 04:31:41;;;;;;;;;5.00;5.00;;;;;20.41;42.68;102260.13;5087311;27;52062;-41
2021/12/13 04:34:06;;;;;;;;;6.75;4.00;;;;;20.41;42.25;102268.38;5086171;27;50918;-41
2021/12/13 04:36:41;;;;;;;;;6.50;5.50;;;;;20.40;42.76;102264.78;5085941;27;51025;-41
2021/12/13 04:39:31;;;;;;;;;6.00;5.00;;;;;20.39;42.44;102263.06;5083728;27;50938;-41
2021/12/13 04:42:00;;;;;;;;;5.00;5.00;;;;;20.39;42.50;102259.47;5081461;27;51852;-41
2021/12/13 04:44:35;;;;;;;;;4.25;4.25;;;;;20.38;42.44;102266.00;5089537;27;51286;-41
2021/12/13 04:47:10;;;;;;;;;5.00;5.00;;;;;20.37;42.45;102269.81;5078499;27;51162;-41
2021/12/13 04:49:40;;;;;;;;;3.75;3.75;;;;;20.37;42.70;102267.06;5083576;27;51338;-41
2021/12/13 04:52:10;;;;;;;;;3.25;3.25;;;;;20.36;42.82;102277.22;5073928;27;51172;-42
2021/12/13 04:54:43;;;;;;;;;5.25;5.25;;;;;20.36;42.67;102270.84;5088377;27;51117;-41
2021/12/13 04:57:08;;;;;;;;;5.00;4.00;;;;;20.35;42.30;102274.66;5087171;27;51303;-41
2021/12/13 04:59:35;;;;;;;;;5.75;5.00;;;;;20.35;42.72;102274.66;5079496;27;51724;-42
2021/12/13 05:02:05;;;;;;;;;5.25;5.00;;;;;20.34;42.59;102273.78;5078974;27;50849;-42
2021/12/13 05:04:31;;;;;;;;;4.25;4.25;;;;;20.33;42.47;102273.97;5110573;27;51445;-41
2021/12/13 05:07:00;;;;;;;;;6.00;4.50;;;;;20.32;42.67;102280.50;5089069;27;51112;-44
2021/12/13 05:09:27;;;;;;;;;3.75;3.75;;;;;20.32;42.48;102286.00;5085031;27;51097;-42
2021/12/13 05:12:05;;;;;;;;;4.25;4.25;;;;;20.31;42.73;102282.41;5081110;27;52019;-42
2021/12/13 05:14:45;;;;;;;;;4.00;4.00;;;;;20.29;42.80;102281.75;5074681;27;50877;-41
2021/12/13 05:17:28;;;;;;;;;3.25;3.25;;;;;20.29;42.56;102283.63;5087604;27;51229;-41
2021/12/13 05:20:06;;;;;;;;;4.00;4.00;;;;;20.29;42.47;102280.88;5077790;27;51279;-41
2021/12/13 05:22:40;;;;;;;;;5.75;4.00;;;;;20.29;42.51;102289.13;5084824;27;51124;-41
2021/12/13 05:25:07;;;;;;;;;5.00;4.00;;;;;20.26;42.90;102282.13;5103168;27;51352;-41
2021/12/13 05:27:40;;;;;;;;;2.00;2.00;;;;;20.26;42.49;102284.03;5079334;27;51153;-41
2021/12/13 05:30:23;;;;;;;;;4.00;3.00;;;;;20.26;42.97;102289.53;5103232;27;51080;-41
2021/12/13 05:32:59;;;;;;;;;5.25;4.00;;;;;20.26;42.73;102289.53;5082788;27;53097;-42
2021/12/13 05:35:37;;;;;;;;;4.50;4.25;;;;;20.25;42.84;102280.41;5084029;27;51285;-41
2021/12/13 05:38:10;;;;;;;;;3.25;3.25;;;;;20.25;42.84;102293.31;5091658;27;50940;-42
2021/12/13 05:40:36;;;;;;;;;3.00;3.00;;;;;20.23;42.71;102287.16;5077771;27;51118;-41
2021/12/13 05:43:19;;;;;;;;;4.25;4.25;;;;;20.23;42.39;102295.41;5084915;27;51231;-43
2021/12/13 05:45:51;;;;;;;;;6.00;4.50;;;;;20.22;42.85;102288.16;5097255;27;50926;-41
2021/12/13 05:48:39;;;;;;;;;4.50;3.75;;;;;20.21;42.84;102287.31;5081476;27;51142;-43
2021/12/13 05:51:28;;;;;;;;;3.50;3.00;;;;;20.22;42.87;102290.91;5076663;27;51068;-42
2021/12/13 05:53:56;;;;;;;;;7.00;4.00;;;;;20.21;42.61;102283.69;5075529;27;52580;-41
2021/12/13 05:56:22;;;;;;;;;5.00;3.75;;;;;20.19;42.63;102286.66;5094716;27;51430;-45
2021/12/13 05:58:56;;;;;;;;;6.50;5.25;;;;;20.18;42.68;102282.19;5076513;27;51083;-44
2021/12/13 06:01:40;;;;;;;;;4.50;4.25;;;;;20.17;42.94;102289.59;5068454;27;51144;-43
2021/12/13 06:04:05;;;;;;;;;4.00;3.25;;;;;20.17;42.57;102292.34;5088129;27;52221;-43
2021/12/13 06:06:33;;;;;;;;;3.00;2.75;;;;;20.17;42.59;102285.97;5078539;27;51090;-43
2021/12/13 06:08:59;;;;;;;;;5.00;4.00;;;;;20.16;42.83;102296.13;5079515;27;51249;-45
2021/12/13 06:11:32;;;;;;;;;7.00;6.75;;;;;20.15;42.90;102294.44;5085179;27;51147;-41
2021/12/13 06:14:15;;;;;;;;;9.25;6.75;;;;;20.12;42.94;102297.56;5083032;27;51253;-40
2021/12/13 06:17:10;;;;;;;;;10.00;8.25;;;;;20.09;42.65;102297.91;5083536;27;51089;-41
2021/12/13 06:19:41;;;;;;;;;10.75;9.50;;;;;20.06;42.19;102297.44;5084259;27;51066;-44
2021/12/13 06:22:14;;;;;;;;;12.25;10.75;;;;;20.02;42.47;102296.09;5082494;27;51169;-41
2021/12/13 06:24:52;;;;;;;;;8.25;8.25;;;;;19.96;42.52;102300.44;5067931;27;51763;-43
2021/12/13 06:27:31;;;;;;;;;13.00;11.75;;;;;19.91;42.17;102291.88;5068603;27;51397;-43
2021/12/13 06:30:04;;;;;;;;;8.50;8.50;;;;;19.88;42.85;102294.97;5086288;27;51954;-41
2021/12/13 06:32:41;;;;;;;;;9.50;8.00;;;;;19.90;42.92;102292.91;5084563;27;51673;-43
2021/12/13 06:35:44;;;;;;;;;7.00;6.00;;;;;19.98;43.26;102292.00;5072276;27;51121;-42
2021/12/13 06:38:18;;;;;;;;;6.00;6.00;;;;;20.06;43.00;102295.53;5082373;27;51251;-41
2021/12/13 06:40:48;;;;;;;;;6.00;5.25;;;;;20.14;43.17;102294.63;5089493;27;51213;-41
2021/12/13 06:43:25;;;;;;;;;5.75;4.25;;;;;20.25;43.01;102293.31;5077982;27;51144;-41
2021/12/13 06:45:50;;;;;;;;;5.50;5.50;;;;;20.34;43.17;102303.22;5069659;27;52188;-46
2021/12/13 06:48:16;;;;;;;;;5.75;5.00;;;;;20.41;42.71;102299.50;5078777;27;50941;-41
2021/12/13 06:50:41;;;;;;;;;5.50;4.50;;;;;20.52;42.64;102309.22;5089111;27;51456;-46
2021/12/13 06:53:19;;;;;;;;;6.75;5.00;;;;;20.60;43.16;102308.31;5077262;27;51169;-42
2021/12/13 06:55:47;;;;;;;;;3.75;3.75;;;;;20.68;42.87;102311.84;5080599;27;51170;-43
2021/12/13 06:58:23;;;;;;;;;4.25;4.25;;;;;20.74;42.60;102313.84;5086293;27;51383;-41
2021/12/13 07:00:53;;;;;;;;;4.75;4.75;;;;;20.83;42.98;102298.06;5084910;27;51189;-47
2021/12/13 07:03:27;;;;;;;;;3.00;3.00;;;;;20.90;43.00;102295.41;5100222;27;51291;-44
2021/12/13 07:06:00;;;;;;;;;4.00;4.00;;;;;20.99;42.66;102302.53;5070879;28;51800;-44
2021/12/13 07:08:35;;;;;;;;;3.75;3.25;;;;;21.06;43.04;102297.97;5077643;27;51607;-45
2021/12/13 07:11:05;;;;;;;;;3.50;3.50;;;;;21.12;42.97;102296.34;5082441;27;51133;-44
2021/12/13 07:13:41;;;;;;;;;3.75;3.75;;;;;21.16;42.73;102293.03;5107714;27;51252;-46
2021/12/13 07:16:11;;;;;;;;;3.50;3.00;;;;;21.17;42.86;102300.25;5077172;27;53142;-46
2021/12/13 07:18:56;;;;;;;;;3.75;3.75;;;;;21.17;42.54;102297.50;5087704;27;51166;-43
2021/12/13 07:21:24;;;;;;;;;4.00;4.00;;;;;21.15;42.74;102295.94;5078061;27;51252;-43
2021/12/13 07:23:54;;;;;;;;;3.00;2.25;;;;;21.14;43.16;102294.25;5102500;27;51072;-42
2021/12/13 07:26:53;;;;;;;;;6.50;5.50;;;;;21.11;43.15;102300.16;5082297;27;52347;-41
2021/12/13 07:29:27;;;;;;;;;3.00;3.00;;;;;21.08;43.41;102295.03;5060049;27;52390;-42
2021/12/13 07:32:07;;;;;;;;;4.00;4.00;;;;;21.09;43.39;102299.50;5078526;27;51083;-42
2021/12/13 07:34:46;;;;;;;;;4.00;3.00;;;;;21.12;43.02;102299.09;5080246;27;51985;-41
2021/12/13 07:37:12;;;;;;;;;5.00;2.25;;;;;21.19;43.45;102302.81;5102059;27;52929;-43
2021/12/13 07:39:37;;;;;;;;;3.50;2.50;;;;;21.24;43.03;102312.19;5072173;27;51169;-42
2021/12/13 07:42:08;;;;;;;;;3.50;3.00;;;;;21.29;42.85;102309.75;5075264;27;51064;-42
2021/12/13 07:44:46;;;;;;;;;6.25;4.00;;;;;21.31;43.28;102310.41;5073274;27;51173;-45
2021/12/13 07:47:19;;;;;;;;;3.25;3.00;;;;;21.31;43.14;102307.66;5080907;27;51144;-43
2021/12/13 07:49:55;;;;;;;;;4.25;3.25;;;;;21.32;42.90;102306.63;5075773;27;51265;-43
2021/12/13 07:52:23;;;;;;;;;3.00;3.00;;;;;21.31;43.10;102309.56;5076660;27;51334;-42
2021/12/13 07:54:49;;;;;;;;;3.50;2.00;;;;;21.29;43.31;102298.75;5071334;27;50926;-42
2021/12/13 07:57:20;;;;;;;;;5.75;3.50;;;;;21.28;43.04;102301.69;5072231;27;51188;-40
2021/12/13 07:59:47;;;;;;;;;3.00;3.00;;;;;21.27;42.95;102311.00;5072996;27;51195;-42
2021/12/13 08:02:22;;;;;;;;;5.00;4.00;;;;;21.24;43.20;102305.81;5100039;27;51172;-41
2021/12/13 08:04:50;;;;;;;;;3.00;3.00;;;;;21.22;43.00;102302.41;5081467;27;51229;-43
2021/12/13 08:07:24;;;;;;;;;5.00;4.00;;;;;21.18;42.80;102312.97;5087363;27;51164;-42
2021/12/13 08:09:57;;;;;;;;;5.25;4.25;;;;;21.14;42.96;102295.09;5088682;27;50936;-42
2021/12/13 08:12:31;;;;;;;;;4.50;4.00;;;;;21.11;42.68;102302.91;5078613;27;51317;-41
2021/12/13 08:15:18;;;;;;;;;5.75;3.75;;;;;21.07;42.68;102307.94;5078781;27;51113;-43
2021/12/13 08:17:52;;;;;;;;;3.75;3.75;;;;;21.03;42.63;102310.22;5077505;27;51007;-41
2021/12/13 08:20:24;;;;;;;;;2.00;2.00;;;;;21.01;42.88;102305.94;5095635;27;51624;-41
2021/12/13 08:22:51;;;;;;;;;3.75;3.75;;;;;20.98;42.64;102309.94;5077395;28;51010;-41
2021/12/13 08:25:22;;;;;;;;;3.00;3.00;;;;;20.94;42.48;102322.38;5076233;27;50957;-43
2021/12/13 08:27:59;;;;;;;;;3.00;3.00;;;;;20.92;43.11;102309.84;5093136;27;51223;-42
2021/12/13 08:30:45;;;;;;;;;4.00;3.00;;;;;20.89;42.66;102319.34;5081503;27;51157;-42
2021/12/13 08:33:15;;;;;;;;;4.25;4.00;;;;;20.87;42.66;102320.59;5075696;27;50884;-44
2021/12/13 08:35:56;;;;;;;;;2.75;2.75;;;;;20.83;43.20;102322.00;5085387;27;51060;-43
2021/12/13 08:38:47;;;;;;;;;3.50;2.75;;;;;20.80;43.00;102314.97;5083316;27;50882;-42
2021/12/13 08:41:15;;;;;;;;;3.50;2.50;;;;;20.78;43.07;102321.72;5081247;27;51424;-44
2021/12/13 08:43:54;;;;;;;;;3.00;3.00;;;;;20.74;42.92;102315.75;5085383;27;50981;-41
2021/12/13 08:46:32;;;;;;;;;4.00;4.00;;;;;20.72;43.05;102318.66;5068422;27;51087;-46
2021/12/13 08:48:59;;;;;;;;;3.00;2.75;;;;;20.69;43.27;102324.56;5070322;27;51113;-45
2021/12/13 08:51:29;;;;;;;;;4.00;3.00;;;;;20.68;42.81;102335.75;5079738;27;51149;-45
2021/12/13 08:54:05;;;;;;;;;3.25;3.25;;;;;20.64;43.08;102327.03;5086219;27;51174;-43
2021/12/13 08:56:40;;;;;;;;;2.50;2.00;;;;;20.64;42.96;102326.19;5068624;27;51265;-43
2021/12/13 08:59:18;;;;;;;;;4.00;4.00;;;;;20.61;43.18;102326.53;5079721;27;51282;-42
2021/12/13 09:01:52;;;;;;;;;4.00;2.00;;;;;20.59;43.46;102323.97;5080426;27;51109;-42
2021/12/13 09:04:42;;;;;;;;;3.00;3.00;;;;;20.57;43.02;102327.97;5085284;27;51169;-45
2021/12/13 09:07:12;;;;;;;;;1.00;1.00;;;;;20.55;43.19;102332.81;5092624;27;51208;-46
2021/12/13 09:09:45;;;;;;;;;3.00;3.00;;;;;20.54;43.26;102333.84;5078481;27;51060;-43
2021/12/13 09:12:14;;;;;;;;;3.75;3.75;;;;;20.53;43.27;102334.88;5083553;27;50963;-42
2021/12/13 09:14:51;;;;;;;;;5.00;3.00;;;;;20.51;42.92;102331.44;5074881;27;51229;-42
2021/12/13 09:17:37;;;;;;;;;2.75;2.00;;;;;20.50;43.23;102335.25;5081026;27;50939;-43
2021/12/13 09:20:23;;;;;;;;;3.00;2.25;;;;;20.47;43.37;102339.25;5072461;27;52712;-42
2021/12/13 09:22:53;;;;;;;;;3.00;2.00;;;;;20.46;42.91;102343.03;5075780;27;51676;-41
2021/12/13 09:25:30;;;;;;;;;6.25;4.25;;;;;20.44;43.53;102345.97;5100129;27;51099;-43
2021/12/13 09:28:01;;;;;;;;;2.00;2.00;;;;;20.43;43.30;102348.91;5088429;27;51217;-44
2021/12/13 09:30:40;;;;;;;;;5.75;3.00;;;;;20.41;43.26;102342.69;5098864;27;53013;-47
2021/12/13 09:33:12;;;;;;;;;2.75;2.75;;;;;20.40;43.14;102349.22;5083861;27;50989;-46
2021/12/13 09:36:02;;;;;;;;;2.00;2.00;;;;;20.39;43.15;102351.13;5076995;27;51210;-46
2021/12/13 09:38:39;;;;;;;;;2.75;2.75;;;;;20.38;42.94;102345.81;5074198;27;50853;-45
2021/12/13 09:41:15;;;;;;;;;3.25;3.25;;;;;20.36;43.49;102353.41;5069679;27;51841;-45
2021/12/13 09:43:45;;;;;;;;;2.00;2.00;;;;;20.35;43.33;102349.81;5082756;27;51400;-46
2021/12/13 09:46:14;;;;;;;;;1.50;1.50;;;;;20.33;43.01;102348.28;5081400;27;51126;-48
2021/12/13 09:48:52;;;;;;;;;3.25;3.00;;;;;20.32;43.46;102349.31;5075577;27;51121;-46
2021/12/13 09:51:25;;;;;;;;;3.75;3.75;;;;;20.31;43.52;102347.59;5087902;27;51909;-43
2021/12/13 09:53:54;;;;;;;;;4.25;2.50;;;;;20.30;43.42;102346.75;5075570;27;50992;-46
2021/12/13 09:56:23;;;;;;;;;4.00;2.00;;;;;20.28;43.47;102348.81;5075458;27;51076;-45
2021/12/13 09:58:53;;;;;;;;;2.00;1.50;;;;;20.28;43.25;102351.56;5080531;27;51098;-47
2021/12/13 10:01:40;;;;;;;;;2.50;2.50;;;;;20.26;43.46;102352.81;5078264;27;51610;-42
2021/12/13 10:04:09;;;;;;;;;3.25;1.25;;;;;20.26;43.32;102344.56;5087244;27;51404;-42
2021/12/13 10:06:44;;;;;;;;;5.00;2.25;;;;;20.26;43.32;102355.56;5100425;27;51340;-42
2021/12/13 10:09:17;;;;;;;;;2.00;2.00;;;;;20.23;43.40;102354.03;5087155;27;52316;-45
2021/12/13 10:11:52;;;;;;;;;2.75;1.25;;;;;20.23;43.18;102361.44;5075423;27;51870;-43
2021/12/13 10:14:21;;;;;;;;;3.50;3.00;;;;;20.22;43.19;102363.34;5102704;27;51073;-43
2021/12/13 10:16:50;;;;;;;;;2.00;2.00;;;;;20.22;43.59;102362.47;5087358;27;51089;-42
2021/12/13 10:19:21;;;;;;;;;3.00;3.00;;;;;20.22;43.27;102351.44;5083782;27;51085;-41
2021/12/13 10:21:47;;;;;;;;;2.00;2.00;;;;;20.18;43.30;102349.06;5108681;27;52899;-43
2021/12/13 10:24:24;;;;;;;;;2.50;2.00;;;;;20.18;43.26;102348.22;5085595;27;51198;-41
2021/12/13 10:26:53;;;;;;;;;2.25;2.00;;;;;20.18;43.07;102353.72;5097938;27;51232;-41
2021/12/13 10:29:19;;;;;;;;;2.75;2.00;;;;;20.16;43.48;102342.91;5082654;27;51281;-41
2021/12/13 10:31:54;;;;;;;;;0.75;0.75;;;;;20.15;43.29;102343.94;5082399;27;51136;-40
2021/12/13 10:34:24;;;;;;;;;3.25;2.50;;;;;20.14;43.62;102335.88;5092702;27;51419;-44
2021/12/13 10:36:55;;;;;;;;;3.00;1.00;;;;;20.14;43.38;102331.25;5085537;27;51281;-48
2021/12/13 10:39:27;;;;;;;;;5.00;3.00;;;;;20.12;43.39;102322.31;5079538;27;51150;-47
2021/12/13 10:41:55;;;;;;;;;2.50;2.50;;;;;20.12;43.31;102337.97;5087634;27;51860;-47
2021/12/13 10:44:29;;;;;;;;;2.25;2.00;;;;;20.11;43.23;102339.88;5095885;27;51344;-46
2021/12/13 10:47:03;;;;;;;;;4.00;2.25;;;;;20.10;43.21;102338.13;5087690;27;51161;-44
2021/12/13 10:49:31;;;;;;;;;2.50;2.00;;;;;20.10;43.49;102342.78;5085766;27;51439;-42
2021/12/13 10:52:07;;;;;;;;;4.25;3.50;;;;;20.09;43.60;102339.16;5090952;27;51785;-44
2021/12/13 10:54:38;;;;;;;;;3.25;2.75;;;;;20.08;43.43;102331.97;5077799;27;51343;-46
2021/12/13 10:57:12;;;;;;;;;4.75;3.50;;;;;20.08;43.44;102331.09;5082418;27;51122;-44
2021/12/13 10:59:39;;;;;;;;;2.00;2.00;;;;;20.06;43.53;102325.78;5083468;27;51057;-47
2021/12/13 11:02:16;;;;;;;;;2.25;2.00;;;;;20.05;43.52;102337.84;5079535;27;52550;-49
2021/12/13 11:04:53;;;;;;;;;3.00;3.00;;;;;20.05;43.48;102331.47;5079359;27;51032;-44
2021/12/13 11:07:19;;;;;;;;;2.75;2.50;;;;;20.04;43.55;102336.13;5093542;27;51267;-45
2021/12/13 11:09:54;;;;;;;;;2.50;2.50;;;;;20.03;43.37;102337.19;5086040;27;51963;-50
2021/12/13 11:12:24;;;;;;;;;2.25;2.25;;;;;20.03;43.53;102337.19;5082309;27;51428;-47
2021/12/13 11:14:54;;;;;;;;;4.75;3.75;;;;;20.02;43.09;102335.47;5082128;27;51691;-47
2021/12/13 11:17:24;;;;;;;;;3.75;2.00;;;;;20.01;43.63;102336.50;5073994;27;51272;-46
2021/12/13 11:19:55;;;;;;;;;4.00;4.00;;;;;20.00;43.76;102337.50;5078884;27;51340;-44
2021/12/13 11:22:26;;;;;;;;;3.00;2.50;;;;;20.02;43.12;102331.84;5073493;27;51760;-44
2021/12/13 11:24:54;;;;;;;;;7.00;4.00;;;;;20.03;43.45;102337.19;5066227;27;51745;-44
2021/12/13 11:27:26;;;;;;;;;3.25;3.25;;;;;20.05;43.04;102335.09;5103544;27;51271;-45
2021/12/13 11:29:53;;;;;;;;;6.25;5.00;;;;;20.06;43.37;102339.53;5074960;27;51135;-45
2021/12/13 11:33:04;;;;;;;;;4.50;4.50;;;;;20.08;43.21;102342.97;5078605;27;52011;-47
2021/12/13 11:36:07;;;;;;;;;53.75;42.75;;;;;20.10;43.10;102329.88;5089537;27;51895;-44
2021/12/13 11:39:04;;;;;;;;;49.75;38.75;;;;;20.15;43.44;102327.44;5079170;27;51197;-44
2021/12/13 11:41:35;;;;;;;;;45.00;37.25;;;;;20.23;43.46;102328.44;5076037;27;51337;-46
2021/12/13 11:44:40;;;;;;;;;44.50;37.75;;;;;20.33;43.32;102323.53;5077212;27;51122;-44
2021/12/13 11:47:30;;;;;;;;;44.50;36.75;;;;;20.44;43.59;102331.38;5074320;27;51326;-43
2021/12/13 11:50:14;;;;;;;;;38.50;33.25;;;;;20.55;43.68;102333.66;5083995;27;51928;-43
2021/12/13 11:52:51;;;;;;;;;34.50;31.50;;;;;20.66;42.95;102316.69;5082399;27;51125;-44
2021/12/13 11:55:29;;;;;;;;;30.00;28.75;;;;;20.77;43.44;102317.25;5077239;27;52223;-44
2021/12/13 11:58:13;;;;;;;;;26.25;21.50;;;;;20.86;42.90;102313.38;5073464;27;51388;-45
2021/12/13 12:01:26;;;;;;;;;30.50;25.00;;;;;20.96;42.98;102314.81;5078065;27;51117;-43
2021/12/13 12:04:02;;;;;;;;;27.75;23.25;;;;;21.06;43.06;102314.50;5025761;27;51409;-45
2021/12/13 12:07:05;;;;;;;;;12.25;10.00;;;;;21.06;40.94;102306.25;5071116;27;53015;-43
2021/12/13 12:10:08;;;;;;;;;8.75;8.75;;;;;20.87;40.52;102293.91;5069466;27;51109;-45